TimeMDT,TemperatureF,Dew PointF,Humidity,Sea Level PressureIn,VisibilityMPH,Wind Direction,Wind SpeedMPH,Gust SpeedMPH,PrecipitationIn,Events,Conditions,WindDirDegrees,DateUTC
12:15 AM,55.0,30.2,39,30.03,10.0,Calm,Calm,-,N/A,,Clear,0,2012-10-23 06:15:00
12:55 AM,52.3,29.8,42,30.03,10.0,WNW,5.8,-,N/A,,Clear,290,2012-10-23 06:55:00
1:35 AM,52.9,30.7,43,30.02,10.0,Calm,Calm,-,N/A,,Clear,0,2012-10-23 07:35:00
1:55 AM,51.8,30.4,44,30.02,10.0,West,5.8,-,N/A,,Clear,260,2012-10-23 07:55:00
2:15 AM,49.3,29.1,46,30.03,10.0,West,4.6,-,N/A,,Clear,280,2012-10-23 08:15:00
2:35 AM,50.7,30.0,45,30.02,10.0,SW,5.8,-,N/A,,Clear,230,2012-10-23 08:35:00
2:55 AM,51.1,30.7,46,30.02,10.0,West,5.8,-,N/A,,Clear,260,2012-10-23 08:55:00
3:15 AM,50.4,30.7,47,30.02,10.0,WNW,5.8,-,N/A,,Clear,290,2012-10-23 09:15:00
3:35 AM,49.1,30.0,48,30.01,10.0,NW,4.6,-,N/A,,Clear,310,2012-10-23 09:35:00
3:55 AM,47.5,29.8,50,30.01,10.0,NW,3.5,-,N/A,,Clear,310,2012-10-23 09:55:00
4:15 AM,46.6,29.1,51,30.01,10.0,NW,3.5,-,N/A,,Clear,310,2012-10-23 10:15:00
4:55 AM,46.4,29.1,51,30.01,10.0,Calm,Calm,-,N/A,,Clear,0,2012-10-23 10:55:00
5:15 AM,47.1,29.1,50,30.02,10.0,Calm,Calm,-,N/A,,Clear,0,2012-10-23 11:15:00
5:35 AM,48.2,31.3,52,30.03,10.0,SE,3.5,-,N/A,,Clear,130,2012-10-23 11:35:00
6:15 AM,47.3,30.7,53,30.03,10.0,Calm,Calm,-,N/A,,Clear,0,2012-10-23 12:15:00
7:55 AM,50.4,30.9,47,30.06,10.0,West,5.8,-,N/A,,Clear,270,2012-10-23 13:55:00
8:15 AM,54.7,32.0,42,30.06,10.0,West,3.5,-,N/A,,Clear,260,2012-10-23 14:15:00
8:35 AM,58.5,32.7,38,30.07,10.0,Calm,Calm,-,N/A,,Clear,0,2012-10-23 14:35:00
8:55 AM,62.2,33.3,34,30.07,10.0,SW,3.5,-,N/A,,Clear,220,2012-10-23 14:55:00
9:15 AM,64.4,33.3,31,30.08,10.0,Calm,Calm,-,N/A,,Clear,0,2012-10-23 15:15:00
9:55 AM,66.6,33.8,30,30.08,10.0,Calm,Calm,-,N/A,,Clear,0,2012-10-23 15:55:00
10:15 AM,69.1,34.7,28,30.08,10.0,SW,3.5,-,N/A,,Clear,220,2012-10-23 16:15:00
10:35 AM,72.5,34.3,25,30.08,10.0,WSW,10.4,-,N/A,,Clear,240,2012-10-23 16:35:00
10:55 AM,73.4,34.3,24,30.08,10.0,WSW,10.4,-,N/A,,Clear,240,2012-10-23 16:55:00
11:15 AM,75.0,33.8,22,30.07,10.0,West,10.4,-,N/A,,Clear,260,2012-10-23 17:15:00
11:35 AM,75.9,34.0,22,30.07,10.0,WSW,11.5,17.3,N/A,,Clear,250,2012-10-23 17:35:00
11:55 AM,76.1,33.8,21,30.06,10.0,WSW,11.5,16.1,N/A,,Clear,240,2012-10-23 17:55:00
12:15 PM,77.7,33.3,20,30.06,10.0,WSW,12.7,-,N/A,,Clear,240,2012-10-23 18:15:00
12:35 PM,78.1,33.1,19,30.05,10.0,SW,9.2,-,N/A,,Clear,230,2012-10-23 18:35:00
12:55 PM,78.4,32.2,19,30.03,10.0,SW,8.1,-,N/A,,Clear,220,2012-10-23 18:55:00
1:15 PM,78.3,32.0,19,30.03,10.0,WSW,8.1,-,N/A,,Clear,240,2012-10-23 19:15:00
1:35 PM,79.0,31.1,17,30.02,10.0,SW,6.9,-,N/A,,Clear,230,2012-10-23 19:35:00
1:55 PM,80.2,30.7,17,30.00,10.0,WSW,8.1,-,N/A,,Clear,240,2012-10-23 19:55:00
2:15 PM,80.1,29.7,16,29.99,10.0,SW,3.5,-,N/A,,Clear,220,2012-10-23 20:15:00
2:35 PM,81.0,28.8,15,29.99,10.0,South,5.8,17.3,N/A,,Clear,190,2012-10-23 20:35:00
2:55 PM,81.3,29.3,15,29.98,10.0,SW,5.8,-,N/A,,Clear,230,2012-10-23 20:55:00
3:15 PM,81.3,29.3,15,29.98,10.0,Calm,Calm,-,N/A,,Clear,0,2012-10-23 21:15:00
3:35 PM,81.7,28.6,14,29.98,10.0,SW,11.5,-,N/A,,Clear,230,2012-10-23 21:35:00
3:55 PM,82.2,29.1,15,29.98,10.0,SW,9.2,-,N/A,,Clear,230,2012-10-23 21:55:00
4:15 PM,82.0,28.9,14,29.98,10.0,SSW,8.1,-,N/A,,Clear,200,2012-10-23 22:15:00
4:35 PM,81.9,28.4,14,29.98,10.0,SW,9.2,-,N/A,,Clear,230,2012-10-23 22:35:00
4:55 PM,81.9,28.2,14,29.98,10.0,SSW,9.2,-,N/A,,Clear,210,2012-10-23 22:55:00
5:15 PM,81.1,28.8,15,29.97,10.0,SSW,6.9,-,N/A,,Clear,210,2012-10-23 23:15:00
5:35 PM,80.6,28.9,15,29.97,10.0,SW,6.9,-,N/A,,Clear,230,2012-10-23 23:35:00
5:55 PM,79.2,28.4,16,29.97,10.0,SSW,8.1,-,N/A,,Clear,200,2012-10-23 23:55:00
6:15 PM,77.5,28.6,17,29.97,10.0,SSW,5.8,-,N/A,,Clear,210,2012-10-24 00:15:00
6:35 PM,74.3,28.8,19,29.98,10.0,SSW,3.5,-,N/A,,Clear,210,2012-10-24 00:35:00
6:55 PM,71.8,28.9,20,29.98,10.0,SSW,3.5,-,N/A,,Clear,210,2012-10-24 00:55:00
7:15 PM,71.6,29.3,21,29.98,10.0,South,6.9,-,N/A,,Clear,190,2012-10-24 01:15:00
7:35 PM,72.9,29.3,20,29.98,10.0,South,8.1,-,N/A,,Clear,180,2012-10-24 01:35:00
7:55 PM,72.1,29.1,20,29.99,10.0,South,6.9,-,N/A,,Clear,180,2012-10-24 01:55:00
8:15 PM,70.0,29.3,22,29.99,10.0,South,6.9,-,N/A,,Clear,190,2012-10-24 02:15:00
8:35 PM,69.3,29.7,23,29.99,10.0,South,6.9,-,N/A,,Clear,180,2012-10-24 02:35:00
8:55 PM,68.5,30.2,24,29.99,10.0,South,8.1,-,N/A,,Clear,190,2012-10-24 02:55:00
9:15 PM,69.1,31.1,24,29.99,10.0,South,8.1,-,N/A,,Clear,190,2012-10-24 03:15:00
9:35 PM,66.9,30.9,26,29.99,10.0,SSW,6.9,-,N/A,,Clear,200,2012-10-24 03:35:00
9:55 PM,66.2,31.1,27,29.99,10.0,SSW,5.8,-,N/A,,Clear,200,2012-10-24 03:55:00
10:15 PM,64.6,30.7,28,29.99,10.0,WSW,4.6,-,N/A,,Clear,250,2012-10-24 04:15:00
10:35 PM,60.1,29.3,31,29.99,10.0,WSW,4.6,-,N/A,,Clear,250,2012-10-24 04:35:00
10:55 PM,59.7,29.3,32,29.99,10.0,West,5.8,-,N/A,,Clear,280,2012-10-24 04:55:00
11:15 PM,60.3,29.5,31,29.99,10.0,West,8.1,-,N/A,,Clear,280,2012-10-24 05:15:00
11:35 PM,60.6,30.2,32,29.99,10.0,West,8.1,-,N/A,,Clear,280,2012-10-24 05:35:00